sensor_id;sensor_type;location;lat;lon;timestamp;temperature;humidity
17437;DHT22;73152;52.198;5.422;2024-02-23T00:02:06;20.10;49.30
17437;DHT22;73152;52.198;5.422;2024-02-23T00:04:35;20.10;49.40
17437;DHT22;73152;52.198;5.422;2024-02-23T00:07:04;20.10;48.20
17437;DHT22;73152;52.198;5.422;2024-02-23T00:09:33;20.10;49.80
17437;DHT22;73152;52.198;5.422;2024-02-23T00:12:03;20.10;50.20
17437;DHT22;73152;52.198;5.422;2024-02-23T00:14:36;20.10;50.40
17437;DHT22;73152;52.198;5.422;2024-02-23T00:17:05;20.20;49.30
17437;DHT22;73152;52.198;5.422;2024-02-23T00:19:34;20.10;49.50
17437;DHT22;73152;52.198;5.422;2024-02-23T00:22:03;20.20;48.30
17437;DHT22;73152;52.198;5.422;2024-02-23T00:24:32;20.20;48.20
17437;DHT22;73152;52.198;5.422;2024-02-23T00:27:02;20.10;49.70
17437;DHT22;73152;52.198;5.422;2024-02-23T00:29:31;20.10;50.00
17437;DHT22;73152;52.198;5.422;2024-02-23T00:32:04;20.10;49.90
17437;DHT22;73152;52.198;5.422;2024-02-23T00:34:33;20.20;49.90
17437;DHT22;73152;52.198;5.422;2024-02-23T00:37:02;20.10;50.00
17437;DHT22;73152;52.198;5.422;2024-02-23T00:39:33;20.20;48.80
17437;DHT22;73152;52.198;5.422;2024-02-23T00:42:03;20.20;48.90
17437;DHT22;73152;52.198;5.422;2024-02-23T00:44:32;20.20;49.30
17437;DHT22;73152;52.198;5.422;2024-02-23T00:47:05;20.10;50.80
17437;DHT22;73152;52.198;5.422;2024-02-23T00:49:35;20.20;50.90
17437;DHT22;73152;52.198;5.422;2024-02-23T00:52:04;20.20;51.30
17437;DHT22;73152;52.198;5.422;2024-02-23T00:54:33;20.20;50.50
17437;DHT22;73152;52.198;5.422;2024-02-23T00:57:02;20.20;50.40
17437;DHT22;73152;52.198;5.422;2024-02-23T00:59:31;20.30;50.30
17437;DHT22;73152;52.198;5.422;2024-02-23T01:02:00;20.30;50.60
17437;DHT22;73152;52.198;5.422;2024-02-23T01:04:31;20.30;47.80
17437;DHT22;73152;52.198;5.422;2024-02-23T01:07:00;20.30;49.70
17437;DHT22;73152;52.198;5.422;2024-02-23T01:09:29;20.20;50.50
17437;DHT22;73152;52.198;5.422;2024-02-23T01:11:58;20.30;51.00
17437;DHT22;73152;52.198;5.422;2024-02-23T01:14:26;20.30;50.50
17437;DHT22;73152;52.198;5.422;2024-02-23T01:16:55;20.30;48.90
17437;DHT22;73152;52.198;5.422;2024-02-23T01:19:24;20.30;49.10
17437;DHT22;73152;52.198;5.422;2024-02-23T01:21:56;20.30;49.20
17437;DHT22;73152;52.198;5.422;2024-02-23T01:24:25;20.20;49.00
17437;DHT22;73152;52.198;5.422;2024-02-23T01:26:54;20.20;50.50
17437;DHT22;73152;52.198;5.422;2024-02-23T01:32:45;20.20;49.40
17437;DHT22;73152;52.198;5.422;2024-02-23T01:35:16;20.20;48.20
17437;DHT22;73152;52.198;5.422;2024-02-23T01:37:47;20.20;47.70
17437;DHT22;73152;52.198;5.422;2024-02-23T01:40:16;20.10;47.80
17437;DHT22;73152;52.198;5.422;2024-02-23T01:42:45;20.00;48.90
17437;DHT22;73152;52.198;5.422;2024-02-23T01:45:14;20.00;49.00
17437;DHT22;73152;52.198;5.422;2024-02-23T01:47:43;20.00;49.20
17437;DHT22;73152;52.198;5.422;2024-02-23T01:50:12;20.10;48.80
17437;DHT22;73152;52.198;5.422;2024-02-23T01:52:41;20.00;47.60
17437;DHT22;73152;52.198;5.422;2024-02-23T01:55:12;20.00;47.80
17437;DHT22;73152;52.198;5.422;2024-02-23T01:57:41;19.90;48.60
17437;DHT22;73152;52.198;5.422;2024-02-23T02:00:11;20.00;49.20
17437;DHT22;73152;52.198;5.422;2024-02-23T02:02:44;19.90;50.30
17437;DHT22;73152;52.198;5.422;2024-02-23T02:05:13;20.00;50.10
17437;DHT22;73152;52.198;5.422;2024-02-23T02:07:43;20.00;50.80
17437;DHT22;73152;52.198;5.422;2024-02-23T02:10:14;20.00;50.80
17437;DHT22;73152;52.198;5.422;2024-02-23T02:12:43;20.10;50.40
17437;DHT22;73152;52.198;5.422;2024-02-23T02:15:12;20.10;50.60
17437;DHT22;73152;52.198;5.422;2024-02-23T02:17:41;20.10;50.80
17437;DHT22;73152;52.198;5.422;2024-02-23T02:20:12;20.10;50.50
17437;DHT22;73152;52.198;5.422;2024-02-23T02:22:41;20.20;50.20
17437;DHT22;73152;52.198;5.422;2024-02-23T02:25:13;20.20;50.70
17437;DHT22;73152;52.198;5.422;2024-02-23T02:27:45;20.20;51.10
17437;DHT22;73152;52.198;5.422;2024-02-23T02:30:14;20.20;50.80
17437;DHT22;73152;52.198;5.422;2024-02-23T02:32:43;20.20;50.20
17437;DHT22;73152;52.198;5.422;2024-02-23T02:35:12;20.30;49.40
17437;DHT22;73152;52.198;5.422;2024-02-23T02:37:41;20.30;49.20
17437;DHT22;73152;52.198;5.422;2024-02-23T02:40:10;20.20;50.40
17437;DHT22;73152;52.198;5.422;2024-02-23T02:42:42;20.30;48.80
17437;DHT22;73152;52.198;5.422;2024-02-23T02:45:11;20.20;49.50
17437;DHT22;73152;52.198;5.422;2024-02-23T02:47:40;20.20;48.50
17437;DHT22;73152;52.198;5.422;2024-02-23T02:50:09;20.20;49.60
17437;DHT22;73152;52.198;5.422;2024-02-23T02:52:38;20.10;50.50
17437;DHT22;73152;52.198;5.422;2024-02-23T02:55:08;20.20;49.20
17437;DHT22;73152;52.198;5.422;2024-02-23T02:57:37;20.20;49.90
17437;DHT22;73152;52.198;5.422;2024-02-23T03:03:34;20.20;48.40
17437;DHT22;73152;52.198;5.422;2024-02-23T03:09:30;20.20;50.20
17437;DHT22;73152;52.198;5.422;2024-02-23T03:11:58;20.20;49.90
17437;DHT22;73152;52.198;5.422;2024-02-23T03:14:27;20.20;49.40
17437;DHT22;73152;52.198;5.422;2024-02-23T03:16:56;20.20;49.60
17437;DHT22;73152;52.198;5.422;2024-02-23T03:19:27;20.20;48.70
17437;DHT22;73152;52.198;5.422;2024-02-23T03:21:58;20.20;48.70
17437;DHT22;73152;52.198;5.422;2024-02-23T03:24:27;20.20;48.70
17437;DHT22;73152;52.198;5.422;2024-02-23T03:26:56;20.20;47.70
17437;DHT22;73152;52.198;5.422;2024-02-23T03:29:25;20.10;50.60
17437;DHT22;73152;52.198;5.422;2024-02-23T03:31:54;20.10;50.50
17437;DHT22;73152;52.198;5.422;2024-02-23T03:34:23;20.10;50.20
17437;DHT22;73152;52.198;5.422;2024-02-23T03:36:55;20.10;50.30
17437;DHT22;73152;52.198;5.422;2024-02-23T03:39:24;20.10;50.70
17437;DHT22;73152;52.198;5.422;2024-02-23T03:41:54;20.20;48.30
17437;DHT22;73152;52.198;5.422;2024-02-23T03:44:22;20.20;49.10
17437;DHT22;73152;52.198;5.422;2024-02-23T03:46:51;20.20;50.00
17437;DHT22;73152;52.198;5.422;2024-02-23T03:49:20;20.10;50.50
17437;DHT22;73152;52.198;5.422;2024-02-23T03:51:52;20.20;48.60
17437;DHT22;73152;52.198;5.422;2024-02-23T03:54:20;20.20;48.10
17437;DHT22;73152;52.198;5.422;2024-02-23T03:56:49;20.20;48.10
17437;DHT22;73152;52.198;5.422;2024-02-23T03:59:18;20.10;48.60
17437;DHT22;73152;52.198;5.422;2024-02-23T04:01:47;20.10;48.80
17437;DHT22;73152;52.198;5.422;2024-02-23T04:04:16;20.10;50.50
17437;DHT22;73152;52.198;5.422;2024-02-23T04:06:45;20.10;48.50
17437;DHT22;73152;52.198;5.422;2024-02-23T04:09:17;20.10;49.30
17437;DHT22;73152;52.198;5.422;2024-02-23T04:11:47;20.10;49.40
17437;DHT22;73152;52.198;5.422;2024-02-23T04:14:16;20.10;48.40
17437;DHT22;73152;52.198;5.422;2024-02-23T04:16:45;20.10;47.90
17437;DHT22;73152;52.198;5.422;2024-02-23T04:19:14;20.10;49.10
17437;DHT22;73152;52.198;5.422;2024-02-23T04:21:43;20.10;48.60
17437;DHT22;73152;52.198;5.422;2024-02-23T04:24:12;20.10;48.60
17437;DHT22;73152;52.198;5.422;2024-02-23T04:26:43;20.10;48.30
17437;DHT22;73152;52.198;5.422;2024-02-23T04:29:12;20.00;48.90
17437;DHT22;73152;52.198;5.422;2024-02-23T04:31:41;20.00;49.10
17437;DHT22;73152;52.198;5.422;2024-02-23T04:34:10;20.00;49.20
17437;DHT22;73152;52.198;5.422;2024-02-23T04:36:38;20.00;49.50
17437;DHT22;73152;52.198;5.422;2024-02-23T04:39:08;20.00;50.70
17437;DHT22;73152;52.198;5.422;2024-02-23T04:41:36;20.10;48.70
17437;DHT22;73152;52.198;5.422;2024-02-23T04:44:08;20.00;50.60
17437;DHT22;73152;52.198;5.422;2024-02-23T04:46:37;20.10;49.60
17437;DHT22;73152;52.198;5.422;2024-02-23T04:49:06;20.00;50.40
17437;DHT22;73152;52.198;5.422;2024-02-23T04:51:37;20.10;50.20
17437;DHT22;73152;52.198;5.422;2024-02-23T04:54:06;20.10;50.70
17437;DHT22;73152;52.198;5.422;2024-02-23T04:56:35;20.10;51.00
17437;DHT22;73152;52.198;5.422;2024-02-23T04:59:04;20.10;51.00
17437;DHT22;73152;52.198;5.422;2024-02-23T05:01:37;20.10;50.50
17437;DHT22;73152;52.198;5.422;2024-02-23T05:04:06;20.10;51.20
17437;DHT22;73152;52.198;5.422;2024-02-23T05:06:35;20.10;49.60
17437;DHT22;73152;52.198;5.422;2024-02-23T05:09:04;20.10;50.20
17437;DHT22;73152;52.198;5.422;2024-02-23T05:11:34;20.20;49.30
17437;DHT22;73152;52.198;5.422;2024-02-23T05:14:03;20.20;50.20
17437;DHT22;73152;52.198;5.422;2024-02-23T05:16:32;20.10;50.50
17437;DHT22;73152;52.198;5.422;2024-02-23T05:19:03;20.10;51.30
17437;DHT22;73152;52.198;5.422;2024-02-23T05:21:32;20.10;50.90
17437;DHT22;73152;52.198;5.422;2024-02-23T05:24:01;20.20;50.50
17437;DHT22;73152;52.198;5.422;2024-02-23T05:26:31;20.20;50.80
17437;DHT22;73152;52.198;5.422;2024-02-23T05:29:00;20.20;50.40
17437;DHT22;73152;52.198;5.422;2024-02-23T05:31:45;20.20;51.00
17437;DHT22;73152;52.198;5.422;2024-02-23T05:34:17;20.20;50.90
17437;DHT22;73152;52.198;5.422;2024-02-23T05:36:47;20.20;50.40
17437;DHT22;73152;52.198;5.422;2024-02-23T05:39:16;20.20;50.20
17437;DHT22;73152;52.198;5.422;2024-02-23T05:41:45;20.20;49.90
17437;DHT22;73152;52.198;5.422;2024-02-23T05:44:14;20.20;51.00
17437;DHT22;73152;52.198;5.422;2024-02-23T05:46:43;20.20;50.90
17437;DHT22;73152;52.198;5.422;2024-02-23T05:49:12;20.20;49.80
17437;DHT22;73152;52.198;5.422;2024-02-23T05:51:44;20.20;50.60
17437;DHT22;73152;52.198;5.422;2024-02-23T05:54:12;20.20;50.10
17437;DHT22;73152;52.198;5.422;2024-02-23T05:56:41;20.30;49.50
17437;DHT22;73152;52.198;5.422;2024-02-23T05:59:13;20.20;50.50
17437;DHT22;73152;52.198;5.422;2024-02-23T06:01:42;20.20;50.30
17437;DHT22;73152;52.198;5.422;2024-02-23T06:04:10;20.20;50.30
17437;DHT22;73152;52.198;5.422;2024-02-23T06:10:09;20.20;49.50
17437;DHT22;73152;52.198;5.422;2024-02-23T06:12:37;20.20;50.50
17437;DHT22;73152;52.198;5.422;2024-02-23T06:15:08;20.20;50.90
17437;DHT22;73152;52.198;5.422;2024-02-23T06:17:38;20.20;50.50
17437;DHT22;73152;52.198;5.422;2024-02-23T06:20:09;20.20;50.80
17437;DHT22;73152;52.198;5.422;2024-02-23T06:22:38;20.30;49.90
17437;DHT22;73152;52.198;5.422;2024-02-23T06:25:10;20.30;49.00
17437;DHT22;73152;52.198;5.422;2024-02-23T06:27:39;20.20;50.30
17437;DHT22;73152;52.198;5.422;2024-02-23T06:30:09;20.30;49.80
17437;DHT22;73152;52.198;5.422;2024-02-23T06:32:38;20.20;49.80
17437;DHT22;73152;52.198;5.422;2024-02-23T06:35:08;20.20;49.30
17437;DHT22;73152;52.198;5.422;2024-02-23T06:37:40;20.30;49.30
17437;DHT22;73152;52.198;5.422;2024-02-23T06:40:11;20.20;50.10
17437;DHT22;73152;52.198;5.422;2024-02-23T06:42:40;20.30;49.20
17437;DHT22;73152;52.198;5.422;2024-02-23T06:45:10;20.20;49.80
17437;DHT22;73152;52.198;5.422;2024-02-23T06:47:39;20.30;48.50
17437;DHT22;73152;52.198;5.422;2024-02-23T06:50:08;20.20;48.80
17437;DHT22;73152;52.198;5.422;2024-02-23T06:52:37;20.20;48.70
17437;DHT22;73152;52.198;5.422;2024-02-23T06:55:06;20.20;48.70
17437;DHT22;73152;52.198;5.422;2024-02-23T06:57:38;20.20;48.20
17437;DHT22;73152;52.198;5.422;2024-02-23T07:00:08;20.20;49.30
17437;DHT22;73152;52.198;5.422;2024-02-23T07:02:38;20.20;49.80
17437;DHT22;73152;52.198;5.422;2024-02-23T07:05:07;20.20;49.40
17437;DHT22;73152;52.198;5.422;2024-02-23T07:07:36;20.20;49.10
17437;DHT22;73152;52.198;5.422;2024-02-23T07:10:07;20.20;49.30
17437;DHT22;73152;52.198;5.422;2024-02-23T07:12:40;20.20;49.60
17437;DHT22;73152;52.198;5.422;2024-02-23T07:15:10;20.20;49.20
17437;DHT22;73152;52.198;5.422;2024-02-23T07:17:38;20.20;48.20
17437;DHT22;73152;52.198;5.422;2024-02-23T07:20:10;20.20;50.20
17437;DHT22;73152;52.198;5.422;2024-02-23T07:22:43;20.20;50.00
17437;DHT22;73152;52.198;5.422;2024-02-23T07:25:16;20.20;49.90
17437;DHT22;73152;52.198;5.422;2024-02-23T07:27:48;20.20;50.10
17437;DHT22;73152;52.198;5.422;2024-02-23T07:30:18;20.20;48.70
17437;DHT22;73152;52.198;5.422;2024-02-23T07:32:47;20.30;48.10
17437;DHT22;73152;52.198;5.422;2024-02-23T07:35:16;20.20;48.40
17437;DHT22;73152;52.198;5.422;2024-02-23T07:37:45;20.30;48.30
17437;DHT22;73152;52.198;5.422;2024-02-23T07:40:14;20.30;48.50
17437;DHT22;73152;52.198;5.422;2024-02-23T07:42:43;20.30;48.30
17437;DHT22;73152;52.198;5.422;2024-02-23T07:45:15;20.30;47.50
17437;DHT22;73152;52.198;5.422;2024-02-23T07:47:44;20.30;47.60
17437;DHT22;73152;52.198;5.422;2024-02-23T07:50:12;20.20;48.50
17437;DHT22;73152;52.198;5.422;2024-02-23T07:52:41;20.30;49.00
17437;DHT22;73152;52.198;5.422;2024-02-23T07:55:10;20.30;48.00
17437;DHT22;73152;52.198;5.422;2024-02-23T07:57:39;20.20;49.50
17437;DHT22;73152;52.198;5.422;2024-02-23T08:00:09;20.30;49.30
17437;DHT22;73152;52.198;5.422;2024-02-23T08:02:41;20.30;49.40
17437;DHT22;73152;52.198;5.422;2024-02-23T08:05:10;20.30;48.50
17437;DHT22;73152;52.198;5.422;2024-02-23T08:07:38;20.30;48.90
17437;DHT22;73152;52.198;5.422;2024-02-23T08:10:08;20.30;48.60
17437;DHT22;73152;52.198;5.422;2024-02-23T08:12:38;20.30;48.40
17437;DHT22;73152;52.198;5.422;2024-02-23T08:15:08;20.40;47.90
17437;DHT22;73152;52.198;5.422;2024-02-23T08:17:40;20.30;48.80
17437;DHT22;73152;52.198;5.422;2024-02-23T08:20:10;20.40;47.10
17437;DHT22;73152;52.198;5.422;2024-02-23T08:22:39;20.40;48.40
17437;DHT22;73152;52.198;5.422;2024-02-23T08:25:09;20.40;47.40
17437;DHT22;73152;52.198;5.422;2024-02-23T08:27:38;20.40;47.30
17437;DHT22;73152;52.198;5.422;2024-02-23T08:30:10;20.40;47.10
17437;DHT22;73152;52.198;5.422;2024-02-23T08:32:41;20.40;47.40
17437;DHT22;73152;52.198;5.422;2024-02-23T08:35:10;20.30;48.00
17437;DHT22;73152;52.198;5.422;2024-02-23T08:37:41;20.30;48.60
17437;DHT22;73152;52.198;5.422;2024-02-23T08:40:11;20.30;48.30
17437;DHT22;73152;52.198;5.422;2024-02-23T08:42:40;20.40;48.30
17437;DHT22;73152;52.198;5.422;2024-02-23T08:45:09;20.40;48.10
17437;DHT22;73152;52.198;5.422;2024-02-23T08:47:42;20.40;47.60
17437;DHT22;73152;52.198;5.422;2024-02-23T08:50:11;20.40;47.90
17437;DHT22;73152;52.198;5.422;2024-02-23T08:52:40;20.40;48.10
17437;DHT22;73152;52.198;5.422;2024-02-23T08:55:09;20.40;48.20
17437;DHT22;73152;52.198;5.422;2024-02-23T08:57:38;20.40;47.60
17437;DHT22;73152;52.198;5.422;2024-02-23T09:00:08;20.40;48.10
17437;DHT22;73152;52.198;5.422;2024-02-23T09:02:41;20.40;48.30
17437;DHT22;73152;52.198;5.422;2024-02-23T09:05:10;20.40;47.90
17437;DHT22;73152;52.198;5.422;2024-02-23T09:07:39;20.30;47.90
17437;DHT22;73152;52.198;5.422;2024-02-23T09:10:09;20.30;48.90
17437;DHT22;73152;52.198;5.422;2024-02-23T09:12:38;20.40;46.80
17437;DHT22;73152;52.198;5.422;2024-02-23T09:15:07;20.40;47.80
17437;DHT22;73152;52.198;5.422;2024-02-23T09:17:37;20.40;47.30
17437;DHT22;73152;52.198;5.422;2024-02-23T09:20:10;20.40;47.00
17437;DHT22;73152;52.198;5.422;2024-02-23T09:22:39;20.40;47.20
17437;DHT22;73152;52.198;5.422;2024-02-23T09:25:09;20.30;48.70
17437;DHT22;73152;52.198;5.422;2024-02-23T09:27:37;20.30;48.20
17437;DHT22;73152;52.198;5.422;2024-02-23T09:30:11;20.30;48.70
17437;DHT22;73152;52.198;5.422;2024-02-23T09:32:41;20.30;48.20
17437;DHT22;73152;52.198;5.422;2024-02-23T09:35:12;20.30;48.20
17437;DHT22;73152;52.198;5.422;2024-02-23T09:37:41;20.40;48.30
17437;DHT22;73152;52.198;5.422;2024-02-23T09:40:11;20.40;48.40
17437;DHT22;73152;52.198;5.422;2024-02-23T09:42:42;20.40;48.20
17437;DHT22;73152;52.198;5.422;2024-02-23T09:45:12;20.40;47.90
17437;DHT22;73152;52.198;5.422;2024-02-23T09:47:41;20.40;48.80
17437;DHT22;73152;52.198;5.422;2024-02-23T09:50:13;20.40;48.60
17437;DHT22;73152;52.198;5.422;2024-02-23T09:52:43;20.40;49.00
17437;DHT22;73152;52.198;5.422;2024-02-23T09:55:12;20.40;48.90
17437;DHT22;73152;52.198;5.422;2024-02-23T09:57:42;20.40;47.10
17437;DHT22;73152;52.198;5.422;2024-02-23T10:00:13;20.40;48.10
17437;DHT22;73152;52.198;5.422;2024-02-23T10:02:45;20.40;48.10
17437;DHT22;73152;52.198;5.422;2024-02-23T10:05:19;20.40;47.80
17437;DHT22;73152;52.198;5.422;2024-02-23T10:07:50;20.50;46.80
17437;DHT22;73152;52.198;5.422;2024-02-23T10:10:24;20.50;47.00
17437;DHT22;73152;52.198;5.422;2024-02-23T10:12:57;20.50;47.50
17437;DHT22;73152;52.198;5.422;2024-02-23T10:15:29;20.50;47.50
17437;DHT22;73152;52.198;5.422;2024-02-23T10:17:59;20.50;47.20
17437;DHT22;73152;52.198;5.422;2024-02-23T10:20:30;20.50;47.90
17437;DHT22;73152;52.198;5.422;2024-02-23T10:23:00;20.50;47.40
17437;DHT22;73152;52.198;5.422;2024-02-23T10:25:33;20.50;47.50
17437;DHT22;73152;52.198;5.422;2024-02-23T10:28:02;20.60;46.20
17437;DHT22;73152;52.198;5.422;2024-02-23T10:30:32;20.50;47.50
17437;DHT22;73152;52.198;5.422;2024-02-23T10:33:01;20.60;46.40
17437;DHT22;73152;52.198;5.422;2024-02-23T10:35:32;20.50;47.70
17437;DHT22;73152;52.198;5.422;2024-02-23T10:38:08;20.50;47.40
17437;DHT22;73152;52.198;5.422;2024-02-23T10:40:39;20.50;46.80
17437;DHT22;73152;52.198;5.422;2024-02-23T10:43:11;20.60;46.50
17437;DHT22;73152;52.198;5.422;2024-02-23T10:45:45;20.60;46.30
17437;DHT22;73152;52.198;5.422;2024-02-23T10:48:15;20.50;47.30
17437;DHT22;73152;52.198;5.422;2024-02-23T10:50:49;20.60;46.20
17437;DHT22;73152;52.198;5.422;2024-02-23T10:53:19;20.60;45.30
17437;DHT22;73152;52.198;5.422;2024-02-23T10:55:52;20.50;46.60
17437;DHT22;73152;52.198;5.422;2024-02-23T10:58:25;20.50;46.60
17437;DHT22;73152;52.198;5.422;2024-02-23T11:00:59;20.40;47.50
17437;DHT22;73152;52.198;5.422;2024-02-23T11:03:30;20.50;47.60
17437;DHT22;73152;52.198;5.422;2024-02-23T11:06:06;20.50;46.60
17437;DHT22;73152;52.198;5.422;2024-02-23T11:08:35;20.50;46.70
17437;DHT22;73152;52.198;5.422;2024-02-23T11:11:08;20.60;46.50
17437;DHT22;73152;52.198;5.422;2024-02-23T11:13:40;20.60;46.50
17437;DHT22;73152;52.198;5.422;2024-02-23T11:16:12;20.60;45.90
17437;DHT22;73152;52.198;5.422;2024-02-23T11:19:03;20.60;46.10
17437;DHT22;73152;52.198;5.422;2024-02-23T11:21:36;20.60;46.10
17437;DHT22;73152;52.198;5.422;2024-02-23T11:24:07;20.50;45.80
17437;DHT22;73152;52.198;5.422;2024-02-23T11:26:37;20.60;46.20
17437;DHT22;73152;52.198;5.422;2024-02-23T11:29:11;20.60;45.40
17437;DHT22;73152;52.198;5.422;2024-02-23T11:31:44;20.60;45.40
17437;DHT22;73152;52.198;5.422;2024-02-23T11:34:22;20.60;45.20
17437;DHT22;73152;52.198;5.422;2024-02-23T11:36:55;20.50;45.50
17437;DHT22;73152;52.198;5.422;2024-02-23T11:39:26;20.40;45.60
17437;DHT22;73152;52.198;5.422;2024-02-23T11:41:57;20.40;45.30
17437;DHT22;73152;52.198;5.422;2024-02-23T11:44:27;20.40;45.60
17437;DHT22;73152;52.198;5.422;2024-02-23T11:46:58;20.40;45.90
17437;DHT22;73152;52.198;5.422;2024-02-23T11:52:40;20.50;45.20
17437;DHT22;73152;52.198;5.422;2024-02-23T11:55:09;20.50;45.10
17437;DHT22;73152;52.198;5.422;2024-02-23T11:57:38;20.50;45.10
17437;DHT22;73152;52.198;5.422;2024-02-23T12:00:08;20.40;45.10
17437;DHT22;73152;52.198;5.422;2024-02-23T12:02:37;20.40;46.50
17437;DHT22;73152;52.198;5.422;2024-02-23T12:05:06;20.40;45.10
17437;DHT22;73152;52.198;5.422;2024-02-23T12:07:39;20.40;45.60
17437;DHT22;73152;52.198;5.422;2024-02-23T12:10:09;20.40;45.30
17437;DHT22;73152;52.198;5.422;2024-02-23T12:12:39;20.40;45.60
17437;DHT22;73152;52.198;5.422;2024-02-23T12:15:09;20.40;46.80
17437;DHT22;73152;52.198;5.422;2024-02-23T12:17:41;20.40;46.40
17437;DHT22;73152;52.198;5.422;2024-02-23T12:20:15;20.50;45.40
17437;DHT22;73152;52.198;5.422;2024-02-23T12:22:49;20.50;45.30
17437;DHT22;73152;52.198;5.422;2024-02-23T12:25:18;20.50;45.70
17437;DHT22;73152;52.198;5.422;2024-02-23T12:27:54;20.50;45.60
17437;DHT22;73152;52.198;5.422;2024-02-23T12:30:24;20.50;45.40
17437;DHT22;73152;52.198;5.422;2024-02-23T12:33:03;20.50;46.60
17437;DHT22;73152;52.198;5.422;2024-02-23T12:35:34;20.50;46.50
17437;DHT22;73152;52.198;5.422;2024-02-23T12:38:05;20.60;45.40
17437;DHT22;73152;52.198;5.422;2024-02-23T12:40:34;20.60;45.60
17437;DHT22;73152;52.198;5.422;2024-02-23T12:43:03;20.60;45.70
17437;DHT22;73152;52.198;5.422;2024-02-23T12:45:32;20.60;45.10
17437;DHT22;73152;52.198;5.422;2024-02-23T12:48:01;20.70;45.50
17437;DHT22;73152;52.198;5.422;2024-02-23T12:50:31;20.60;46.20
17437;DHT22;73152;52.198;5.422;2024-02-23T12:52:59;20.70;45.70
17437;DHT22;73152;52.198;5.422;2024-02-23T12:55:32;20.70;46.20
17437;DHT22;73152;52.198;5.422;2024-02-23T12:58:02;20.80;45.00
17437;DHT22;73152;52.198;5.422;2024-02-23T13:00:31;20.80;44.80
17437;DHT22;73152;52.198;5.422;2024-02-23T13:09:28;20.80;45.10
17437;DHT22;73152;52.198;5.422;2024-02-23T13:11:59;20.80;44.40
17437;DHT22;73152;52.198;5.422;2024-02-23T13:14:28;20.70;45.70
17437;DHT22;73152;52.198;5.422;2024-02-23T13:16:57;20.80;44.60
17437;DHT22;73152;52.198;5.422;2024-02-23T13:19:26;20.70;45.10
17437;DHT22;73152;52.198;5.422;2024-02-23T13:21:55;20.70;45.70
17437;DHT22;73152;52.198;5.422;2024-02-23T13:24:26;20.70;46.40
17437;DHT22;73152;52.198;5.422;2024-02-23T13:26:54;20.70;45.70
17437;DHT22;73152;52.198;5.422;2024-02-23T13:29:26;20.70;45.70
17437;DHT22;73152;52.198;5.422;2024-02-23T13:31:55;20.80;44.70
17437;DHT22;73152;52.198;5.422;2024-02-23T13:34:24;20.80;44.60
17437;DHT22;73152;52.198;5.422;2024-02-23T13:36:53;20.80;43.50
17437;DHT22;73152;52.198;5.422;2024-02-23T13:39:22;20.70;43.80
17437;DHT22;73152;52.198;5.422;2024-02-23T13:41:50;20.60;44.90
17437;DHT22;73152;52.198;5.422;2024-02-23T13:44:19;20.60;45.00
17437;DHT22;73152;52.198;5.422;2024-02-23T13:46:51;20.50;45.60
17437;DHT22;73152;52.198;5.422;2024-02-23T13:49:20;20.60;45.00
17437;DHT22;73152;52.198;5.422;2024-02-23T13:51:49;20.60;45.00
17437;DHT22;73152;52.198;5.422;2024-02-23T13:54:18;20.70;44.70
17437;DHT22;73152;52.198;5.422;2024-02-23T13:56:47;20.60;45.70
17437;DHT22;73152;52.198;5.422;2024-02-23T13:59:16;20.70;45.00
17437;DHT22;73152;52.198;5.422;2024-02-23T14:01:45;20.80;43.90
17437;DHT22;73152;52.198;5.422;2024-02-23T14:04:16;20.70;44.60
17437;DHT22;73152;52.198;5.422;2024-02-23T14:06:45;20.60;45.50
17437;DHT22;73152;52.198;5.422;2024-02-23T14:09:14;20.60;45.80
17437;DHT22;73152;52.198;5.422;2024-02-23T14:11:43;20.60;45.30
17437;DHT22;73152;52.198;5.422;2024-02-23T14:14:13;20.70;44.40
17437;DHT22;73152;52.198;5.422;2024-02-23T14:16:42;20.60;45.80
17437;DHT22;73152;52.198;5.422;2024-02-23T14:19:11;20.60;44.80
17437;DHT22;73152;52.198;5.422;2024-02-23T14:21:43;20.50;45.60
17437;DHT22;73152;52.198;5.422;2024-02-23T14:24:14;20.50;46.40
17437;DHT22;73152;52.198;5.422;2024-02-23T14:26:43;20.50;46.90
17437;DHT22;73152;52.198;5.422;2024-02-23T14:29:12;20.60;46.40
17437;DHT22;73152;52.198;5.422;2024-02-23T14:31:43;20.70;45.40
17437;DHT22;73152;52.198;5.422;2024-02-23T14:34:12;20.60;46.20
17437;DHT22;73152;52.198;5.422;2024-02-23T14:36:43;20.70;45.40
17437;DHT22;73152;52.198;5.422;2024-02-23T14:39:12;20.70;45.70
17437;DHT22;73152;52.198;5.422;2024-02-23T14:41:42;20.80;45.60
17437;DHT22;73152;52.198;5.422;2024-02-23T14:44:10;21.00;45.50
17437;DHT22;73152;52.198;5.422;2024-02-23T14:46:39;21.00;45.10
17437;DHT22;73152;52.198;5.422;2024-02-23T14:49:08;21.10;44.50
17437;DHT22;73152;52.198;5.422;2024-02-23T14:51:38;21.30;44.70
17437;DHT22;73152;52.198;5.422;2024-02-23T14:54:11;21.30;44.60
17437;DHT22;73152;52.198;5.422;2024-02-23T14:56:40;21.30;45.00
17437;DHT22;73152;52.198;5.422;2024-02-23T14:59:10;21.40;43.50
17437;DHT22;73152;52.198;5.422;2024-02-23T15:01:40;21.50;43.40
17437;DHT22;73152;52.198;5.422;2024-02-23T15:04:09;21.40;44.20
17437;DHT22;73152;52.198;5.422;2024-02-23T15:06:38;21.50;42.80
17437;DHT22;73152;52.198;5.422;2024-02-23T15:09:07;21.30;43.70
17437;DHT22;73152;52.198;5.422;2024-02-23T15:11:38;21.40;42.50
17437;DHT22;73152;52.198;5.422;2024-02-23T15:14:08;21.40;42.50
17437;DHT22;73152;52.198;5.422;2024-02-23T15:16:36;21.20;43.30
17437;DHT22;73152;52.198;5.422;2024-02-23T15:19:05;21.20;43.60
17437;DHT22;73152;52.198;5.422;2024-02-23T15:21:35;21.20;43.40
17437;DHT22;73152;52.198;5.422;2024-02-23T15:24:06;21.10;44.00
17437;DHT22;73152;52.198;5.422;2024-02-23T15:26:39;21.20;43.20
17437;DHT22;73152;52.198;5.422;2024-02-23T15:29:07;21.10;43.80
17437;DHT22;73152;52.198;5.422;2024-02-23T15:31:38;21.00;44.30
17437;DHT22;73152;52.198;5.422;2024-02-23T15:34:08;20.90;44.20
17437;DHT22;73152;52.198;5.422;2024-02-23T15:36:37;20.90;44.50
17437;DHT22;73152;52.198;5.422;2024-02-23T15:39:06;20.90;44.20
17437;DHT22;73152;52.198;5.422;2024-02-23T15:41:39;20.80;45.30
17437;DHT22;73152;52.198;5.422;2024-02-23T15:44:08;20.80;45.40
17437;DHT22;73152;52.198;5.422;2024-02-23T15:46:37;20.70;46.30
17437;DHT22;73152;52.198;5.422;2024-02-23T15:49:07;20.80;46.80
17437;DHT22;73152;52.198;5.422;2024-02-23T15:51:35;20.70;47.10
17437;DHT22;73152;52.198;5.422;2024-02-23T15:54:05;20.90;45.70
17437;DHT22;73152;52.198;5.422;2024-02-23T15:56:34;20.90;45.60
17437;DHT22;73152;52.198;5.422;2024-02-23T15:59:06;20.90;45.80
17437;DHT22;73152;52.198;5.422;2024-02-23T16:01:36;20.80;46.40
17437;DHT22;73152;52.198;5.422;2024-02-23T16:04:05;20.90;46.00
17437;DHT22;73152;52.198;5.422;2024-02-23T16:06:35;20.90;46.30
17437;DHT22;73152;52.198;5.422;2024-02-23T16:09:05;20.80;46.50
17437;DHT22;73152;52.198;5.422;2024-02-23T16:11:35;20.80;47.30